Historyczne dane pomiarowe

Dodano dane terminowe – wersja testowa.

Dane z okresu 1951-2019

Wersja bazy: 1.34 [2019-03-16, lista zmian], aktualizacja planowana na 2019-04-15

Dane meteo z obszaru Polski uzyskane na podstawie danych udostępnionych przez Instytut Meteorologii i Gospodarki Wodnej – Państwowy Instytut Badawczy.

 

Wybierz Datę:    

       

TemperaturaWilgotnośćWiatrCiśnienieOpadyŚniegCzas trwania zjawisk
 Stacja t tx tn tng RH VA  wxwx mslp ppp RRR   cm mm wxwxwxwxwxwxwx
1996-08-13 16.4 18.3 12.1- 94.8- 8.0 3.7---- 0.0------------
1996-08-14 15.7 20.4 12.9- 87.5- 8.0 0.7---- 3.3------------
1996-08-15 17.7 21.4 13.2- 80.5- 5.3 1.7---- 0.1------------
1996-08-16 17.3 23.7 11.8- 87.0- 5.3 1.7---- 3.5------------
1996-08-17 17.3 21.7 14.1- 89.8- 7.3 3.0---- 3.8------------
1996-08-18 18.9 27.1 12.7- 81.0- 3.0 2.0---- 0.0------------
1996-08-19 19.1 28.9 10.1- 73.8- 2.0 2.0---- 0.0------------
1996-08-20 18.4 28.4 9.2- 78.3- 2.7 2.0---- 0.4------------
1996-08-21 16.9 24.7 9.6- 83.5- 5.3 1.7---- 0.0------------
1996-08-22 17.1 22.7 11.6- 80.0- 5.3 3.0---- 0.9------------
1996-08-23 18.3 25.7 11.4- 81.3- 6.0 2.3---- 0.2------------
1996-08-24 19.0 26.7 10.6- 79.3- 5.3 3.7---- 1.0------------
1996-08-25 19.1 26.5 13.2- 79.0- 3.0 1.7---- 0.0------------
1996-08-26 16.3 20.3 13.2- 93.0- 8.0 1.3---- 0.0------------
1996-08-27 17.7 24.9 14.6- 95.5- 4.3 1.0---- 0.0------------
1996-08-28 19.8 27.5 13.9- 83.3- 2.7 4.3---- 15.0------------
1996-08-29 19.9 24.5 16.4- 84.5- 2.7 1.3---- 0.0------------
1996-08-30 18.8 23.3 14.6- 90.8- 8.0 0.7---- 0.9------------
1996-08-31 17.4 21.7 13.6- 87.8- 7.3 0.0---- 25.0------------
1996-09-01 16.9 22.2 13.4- 89.0- 5.7 1.7---- 31.0------------
1996-09-02 17.6 23.4 13.6- 84.3- 5.7 2.0---- 0.0------------
1996-09-03 17.3 21.7 13.8- 91.5- 0.0 3.0---- 0.0------------
1996-09-04 17.2 21.7 13.1- 90.3- 6.3 1.7---- 0.0------------
1996-09-05 13.8 18.4 11.5- 93.3- 8.0 5.3---- 3.5------------
1996-09-06 11.1 13.8 8.6- 86.3- 8.0 6.3---- 0.0------------
1996-09-07 10.2 11.8 8.4- 97.5- 8.0 1.7---- 15.5------------
1996-09-08 10.1 11.8 7.9- 92.8- 8.0 3.7---- 0.0------------
1996-09-09 10.7 14.3 7.2- 82.3- 5.7 6.7---- 0.0------------
1996-09-10 11.0 12.5 9.8- 92.5- 8.0 1.7---- 0.0------------
1996-09-11 8.9 10.6 6.4- 97.3- 8.0 0.0---- 2.4------------
952.5 ms

 

Źródłem pochodzenia danych jest Instytut Meteorologii i Gospodarki Wodnej – Państwowy Instytut Badawczy. Dane Instytutu Meteorologii i Gospodarki Wodnej – Państwowego Instytutu Badawczego zostały przetworzone.

Dane źródłowe można odnaleźć na stronie https://dane.imgw.pl